Time;durP1;ratioP1;P1;durP2;ratioP2;P2;SDS_P1;SDS_P2;PMS_P1;PMS_P2;Temp;Humidity;BMP_temperature;BMP_pressure;BME280_temperature;BME280_humidity;BME280_pressure;Samples;Min_cycle;Max_cycle;Signal;HPM_P1;HPM_P2
2022/10/10 00:01:51;;;;;;;14.60;2.25;;;;;;;7.12;100.00;100234.94;5094067;28;20028;-88
2022/10/10 00:04:17;;;;;;;31.42;3.10;;;;;;;7.13;100.00;100232.16;5084288;28;20085;-89
2022/10/10 00:06:46;;;;;;;15.75;2.70;;;;;;;7.19;100.00;100238.69;5091465;28;20480;-89
2022/10/10 00:09:14;;;;;;;16.38;2.45;;;;;;;7.19;100.00;100239.56;5061421;28;20039;-89
2022/10/10 00:11:42;;;;;;;13.43;2.40;;;;;;;7.16;100.00;100238.97;5092803;28;20077;-89
2022/10/10 00:14:10;;;;;;;12.48;2.17;;;;;;;7.16;100.00;100241.59;5097493;28;20561;-88
2022/10/10 00:16:39;;;;;;;16.77;2.40;;;;;;;7.15;100.00;100246.00;5094866;28;20039;-90
2022/10/10 00:19:07;;;;;;;15.18;1.95;;;;;;;7.17;100.00;100248.50;5101140;28;20044;-88
2022/10/10 00:21:35;;;;;;;12.85;2.25;;;;;;;7.17;100.00;100246.72;5094181;28;20039;-89
2022/10/10 00:24:03;;;;;;;14.23;2.15;;;;;;;7.20;100.00;100250.88;5078050;28;20098;-88
2022/10/10 00:26:32;;;;;;;13.02;2.20;;;;;;;7.23;100.00;100249.81;5091820;28;20038;-88
2022/10/10 00:28:59;;;;;;;15.48;1.85;;;;;;;7.27;100.00;100251.22;5070222;28;20031;-88
2022/10/10 00:31:28;;;;;;;14.57;2.00;;;;;;;7.28;100.00;100248.44;5100913;27;20036;-89
2022/10/10 00:33:55;;;;;;;18.42;2.05;;;;;;;7.30;100.00;100250.94;5070829;28;20036;-88
2022/10/10 00:36:23;;;;;;;12.10;1.92;;;;;;;7.31;100.00;100256.09;5061829;28;20166;-88
2022/10/10 00:38:51;;;;;;;10.50;1.95;;;;;;;7.36;100.00;100260.16;5079469;28;20032;-89
2022/10/10 00:41:21;;;;;;;11.60;1.98;;;;;;;7.34;100.00;100262.06;5096150;28;20039;-88
2022/10/10 00:44:09;;;;;;;18.08;3.25;;;;;;;7.32;100.00;100270.91;5112377;28;20039;-89
2022/10/10 00:46:39;;;;;;;18.73;2.15;;;;;;;7.26;100.00;100274.03;5094880;28;20047;-88
2022/10/10 00:49:16;;;;;;;12.05;2.72;;;;;;;7.21;100.00;100278.84;5106815;28;20040;-88
2022/10/10 00:51:48;;;;;;;10.95;1.83;;;;;;;7.15;100.00;100289.88;5088571;28;20471;-88
2022/10/10 00:54:19;;;;;;;10.65;1.92;;;;;;;7.11;100.00;100289.28;5098419;28;20027;-88
2022/10/10 00:56:52;;;;;;;11.93;2.25;;;;;;;7.05;100.00;100292.41;5081517;28;20042;-88
2022/10/10 00:59:21;;;;;;;14.32;2.40;;;;;;;7.00;100.00;100286.69;5092034;28;20032;-88
2022/10/10 01:01:50;;;;;;;11.35;2.08;;;;;;;6.94;100.00;100298.53;5065050;28;20105;-89
2022/10/10 01:04:42;;;;;;;12.43;2.25;;;;;;;6.89;100.00;100304.16;5077673;28;20039;-88
2022/10/10 01:07:15;;;;;;;13.93;2.63;;;;;;;6.82;100.00;100313.50;5092961;28;20042;-88
2022/10/10 01:09:45;;;;;;;10.75;1.80;;;;;;;6.71;100.00;100311.72;5111862;27;20035;-89
2022/10/10 01:12:47;;;;;;;6.35;1.77;;;;;;;6.62;100.00;100320.34;5091318;28;20032;-88
2022/10/10 01:15:48;;;;;;;12.05;2.63;;;;;;;6.53;100.00;100321.91;5097331;28;20059;-89
2022/10/10 01:18:48;;;;;;;11.40;2.50;;;;;;;6.48;100.00;100318.81;5094174;28;20030;-89
2022/10/10 01:21:41;;;;;;;16.85;1.92;;;;;;;6.42;100.00;100320.94;5084692;28;20028;-89
2022/10/10 01:24:16;;;;;;;11.73;2.40;;;;;;;6.44;100.00;100321.66;5093358;28;20039;-90
2022/10/10 01:27:12;;;;;;;14.07;2.33;;;;;;;6.41;100.00;100328.94;5092803;28;20070;-88
2022/10/10 01:29:51;;;;;;;12.82;2.35;;;;;;;6.43;100.00;100330.47;5093079;28;20039;-88
2022/10/10 01:32:27;;;;;;;15.55;2.00;;;;;;;6.43;100.00;100338.38;5106355;28;20365;-88
2022/10/10 01:35:37;;;;;;;9.68;1.83;;;;;;;6.43;100.00;100337.56;5093939;28;20173;-88
2022/10/10 01:38:28;;;;;;;11.98;1.70;;;;;;;6.36;100.00;100341.59;5076937;28;20059;-88
2022/10/10 01:41:06;;;;;;;15.25;2.40;;;;;;;6.37;100.00;100346.72;5077426;28;20036;-87
2022/10/10 01:43:35;;;;;;;22.05;2.40;;;;;;;6.46;100.00;100353.06;5088914;28;20092;-88
2022/10/10 01:46:12;;;;;;;15.13;2.03;;;;;;;6.49;100.00;100344.09;5072790;28;20048;-88
2022/10/10 01:48:43;;;;;;;11.68;2.75;;;;;;;6.48;100.00;100348.53;5081682;28;20134;-88
2022/10/10 01:51:34;;;;;;;11.15;3.00;;;;;;;6.48;100.00;100342.44;5076941;28;20123;-89
2022/10/10 01:54:20;;;;;;;9.98;1.70;;;;;;;6.44;100.00;100352.34;5075233;28;20039;-88
2022/10/10 01:57:06;;;;;;;12.32;2.10;;;;;;;6.42;100.00;100356.84;5085791;28;20031;-88
2022/10/10 02:00:06;;;;;;;11.30;2.05;;;;;;;6.41;100.00;100349.94;5067743;28;20035;-88
2022/10/10 02:02:41;;;;;;;13.05;2.15;;;;;;;6.39;100.00;100363.19;5090660;28;20166;-88
2022/10/10 02:05:33;;;;;;;12.27;2.20;;;;;;;6.41;100.00;100368.31;5077940;28;20039;-88
2022/10/10 02:08:31;;;;;;;7.07;1.75;;;;;;;6.40;100.00;100375.34;5110918;27;20031;-88
2022/10/10 02:11:03;;;;;;;8.90;1.35;;;;;;;6.44;100.00;100375.97;5107805;28;20074;-88
2022/10/10 02:13:53;;;;;;;11.23;2.40;;;;;;;6.42;100.00;100380.50;5092698;28;20042;-89
2022/10/10 02:16:28;;;;;;;14.00;1.95;;;;;;;6.42;100.00;100381.34;5082913;28;20080;-88
2022/10/10 02:19:01;;;;;;;15.75;2.03;;;;;;;6.40;100.00;100377.16;5089292;28;20039;-89
2022/10/10 02:21:31;;;;;;;12.00;1.65;;;;;;;6.33;100.00;100393.41;5104077;28;20395;-89
2022/10/10 02:24:03;;;;;;;10.52;1.30;;;;;;;6.25;100.00;100398.38;5096351;28;20129;-88
2022/10/10 02:26:33;;;;;;;10.10;1.58;;;;;;;6.19;100.00;100411.97;5101694;28;20059;-89
2022/10/10 02:29:18;;;;;;;8.80;1.70;;;;;;;6.16;100.00;100414.84;5092541;28;20028;-88
2022/10/10 02:32:04;;;;;;;10.35;2.05;;;;;;;6.17;100.00;100413.88;5090858;28;20030;-88
2022/10/10 02:34:37;;;;;;;13.35;1.65;;;;;;;6.21;100.00;100415.34;5062845;28;20047;-88
2022/10/10 02:37:09;;;;;;;15.23;2.55;;;;;;;6.26;100.00;100418.44;5086401;28;20093;-88
2022/10/10 02:39:46;;;;;;;12.07;2.25;;;;;;;6.29;100.00;100426.06;5094890;28;20133;-88
2022/10/10 02:42:16;;;;;;;13.77;2.10;;;;;;;6.28;100.00;100427.03;5095615;28;20049;-88
2022/10/10 02:44:45;;;;;;;10.90;1.85;;;;;;;6.27;100.00;100422.75;5092432;28;20063;-88
2022/10/10 02:47:13;;;;;;;14.20;2.05;;;;;;;6.27;100.00;100422.75;5102883;28;20036;-88
2022/10/10 02:49:42;;;;;;;14.25;1.83;;;;;;;6.29;100.00;100428.69;5089588;28;20481;-88
2022/10/10 02:52:11;;;;;;;15.63;1.83;;;;;;;6.31;100.00;100437.28;5104777;28;20066;-88
2022/10/10 02:54:40;;;;;;;11.88;1.75;;;;;;;6.31;100.00;100436.44;5078605;28;20040;-88
2022/10/10 02:57:08;;;;;;;14.80;2.00;;;;;;;6.31;100.00;100434.66;5088838;28;20027;-88
2022/10/10 02:59:36;;;;;;;11.10;1.10;;;;;;;6.27;100.00;100441.13;5099339;28;20324;-88
2022/10/10 03:02:05;;;;;;;10.43;1.98;;;;;;;6.25;100.00;100431.66;5092173;28;20039;-88
2022/10/10 03:04:32;;;;;;;8.05;1.52;;;;;;;6.24;100.00;100432.63;5097863;28;20047;-88
2022/10/10 03:07:02;;;;;;;14.48;2.05;;;;;;;6.27;100.00;100440.28;5100640;28;20111;-89
2022/10/10 03:09:30;;;;;;;15.50;1.92;;;;;;;6.26;100.00;100436.81;5091655;28;20383;-88
2022/10/10 03:11:58;;;;;;;13.27;2.35;;;;;;;6.26;100.00;100446.47;5100310;28;20122;-88
2022/10/10 03:14:26;;;;;;;11.63;1.60;;;;;;;6.29;100.00;100443.63;5092799;28;20548;-88
2022/10/10 03:16:55;;;;;;;16.08;2.15;;;;;;;6.31;100.00;100444.31;5080233;28;20116;-88
2022/10/10 03:19:23;;;;;;;11.75;1.58;;;;;;;6.31;100.00;100446.94;5089252;28;20032;-88
2022/10/10 03:21:52;;;;;;;10.98;1.23;;;;;;;6.39;100.00;100454.25;5080585;28;20031;-88
2022/10/10 03:24:20;;;;;;;12.50;1.88;;;;;;;6.44;100.00;100455.59;5065560;28;20039;-88
2022/10/10 03:26:47;;;;;;;12.35;2.28;;;;;;;6.44;100.00;100462.59;5089003;28;20065;-87
2022/10/10 03:29:15;;;;;;;15.23;2.13;;;;;;;6.42;100.00;100465.34;5097322;28;20035;-88
2022/10/10 03:31:45;;;;;;;17.05;2.30;;;;;;;6.45;100.00;100462.50;5097499;28;20528;-88
2022/10/10 03:34:14;;;;;;;12.75;1.88;;;;;;;6.48;100.00;100455.34;5101920;27;20115;-88
2022/10/10 03:36:41;;;;;;;15.88;2.30;;;;;;;6.50;100.00;100467.41;5094679;28;20395;-88
2022/10/10 03:39:09;;;;;;;16.00;2.88;;;;;;;6.57;100.00;100465.16;5064893;28;20032;-88
2022/10/10 03:41:37;;;;;;;9.48;2.03;;;;;;;6.61;100.00;100473.63;5072230;28;20056;-88
2022/10/10 03:44:05;;;;;;;12.85;2.38;;;;;;;6.63;100.00;100471.69;5091636;28;20066;-87
2022/10/10 03:46:33;;;;;;;12.82;1.55;;;;;;;6.63;100.00;100476.97;5100617;28;20028;-88
2022/10/10 03:49:01;;;;;;;18.73;1.80;;;;;;;6.62;100.00;100484.03;5092220;28;20035;-87
2022/10/10 03:51:29;;;;;;;12.50;1.60;;;;;;;6.62;100.00;100488.44;5111542;28;20039;-88
2022/10/10 03:53:58;;;;;;;12.32;1.83;;;;;;;6.64;100.00;100484.72;5110994;28;20548;-88
2022/10/10 03:56:25;;;;;;;17.10;2.38;;;;;;;6.65;100.00;100493.44;5075824;28;20031;-88
2022/10/10 03:58:53;;;;;;;12.10;1.73;;;;;;;6.65;100.00;100496.91;5063013;28;20130;-88
2022/10/10 04:01:21;;;;;;;11.32;2.00;;;;;;;6.65;100.00;100503.94;5098985;28;20024;-87
2022/10/10 04:03:49;;;;;;;10.45;1.50;;;;;;;6.67;100.00;100504.69;5116161;28;20095;-88
2022/10/10 04:06:16;;;;;;;14.27;2.55;;;;;;;6.65;100.00;100507.41;5083040;28;20057;-88
2022/10/10 04:08:45;;;;;;;15.25;2.25;;;;;;;6.65;100.00;100517.09;5079405;28;20031;-89
2022/10/10 04:11:13;;;;;;;20.58;1.90;;;;;;;6.61;100.00;100520.91;5078766;28;20040;-88
2022/10/10 04:13:41;;;;;;;16.35;2.13;;;;;;;6.57;100.00;100528.16;5070271;28;20035;-88
2022/10/10 04:16:09;;;;;;;11.18;1.85;;;;;;;6.52;100.00;100525.91;5092973;28;20047;-87
2022/10/10 04:18:38;;;;;;;15.25;1.67;;;;;;;6.55;100.00;100525.66;5098824;28;20035;-88
2022/10/10 04:21:08;;;;;;;9.50;1.48;;;;;;;6.60;100.00;100532.34;5095648;28;20051;-87
2022/10/10 04:23:36;;;;;;;16.27;1.88;;;;;;;6.60;100.00;100540.22;5086009;28;20030;-88
2022/10/10 04:26:04;;;;;;;28.23;2.25;;;;;;;6.62;100.00;100540.97;5080253;28;20039;-88
2022/10/10 04:28:32;;;;;;;12.23;1.85;;;;;;;6.61;100.00;100549.78;5088070;28;20032;-88
2022/10/10 04:31:02;;;;;;;14.35;2.00;;;;;;;6.63;100.00;100558.38;5105212;28;20040;-88
2022/10/10 04:33:30;;;;;;;9.15;1.40;;;;;;;6.66;100.00;100569.50;5103688;28;20039;-87
2022/10/10 04:35:58;;;;;;;10.98;1.42;;;;;;;6.66;100.00;100561.63;5078032;28;20048;-88
2022/10/10 04:38:27;;;;;;;16.17;3.28;;;;;;;6.71;100.00;100569.16;5076289;28;20036;-88
2022/10/10 04:40:55;;;;;;;9.52;1.45;;;;;;;6.74;100.00;100571.53;5074974;28;20039;-88
2022/10/10 04:43:24;;;;;;;10.57;1.92;;;;;;;6.77;100.00;100581.81;5081674;28;20468;-88
2022/10/10 04:45:52;;;;;;;8.40;1.98;;;;;;;6.78;100.00;100580.03;5090085;28;20085;-88
2022/10/10 04:48:21;;;;;;;11.93;1.95;;;;;;;6.82;100.00;100579.69;5088445;28;20039;-89
2022/10/10 04:50:55;;;;;;;12.77;2.00;;;;;;;6.82;100.00;100584.94;5078293;28;20028;-89
2022/10/10 04:53:24;;;;;;;16.38;2.88;;;;;;;6.81;100.00;100588.53;5102378;28;20036;-88
2022/10/10 04:55:53;;;;;;;11.30;2.13;;;;;;;6.85;100.00;100593.56;5094003;28;20028;-89
2022/10/10 04:58:21;;;;;;;10.88;1.70;;;;;;;6.83;100.00;100599.75;5075213;28;20032;-88
2022/10/10 05:00:55;;;;;;;9.48;1.88;;;;;;;6.82;100.00;100597.22;5065013;28;20115;-89
2022/10/10 05:03:25;;;;;;;17.25;1.83;;;;;;;6.80;100.00;100599.16;5073081;28;20086;-89
2022/10/10 05:05:54;;;;;;;16.52;2.38;;;;;;;6.81;100.00;100604.31;5087130;28;20487;-89
2022/10/10 05:08:22;;;;;;;22.20;2.42;;;;;;;6.79;100.00;100605.34;5078187;28;20507;-89
2022/10/10 05:10:52;;;;;;;13.90;2.13;;;;;;;6.76;100.00;100605.56;5088136;28;20042;-89
2022/10/10 05:13:20;;;;;;;12.30;2.30;;;;;;;6.64;100.00;100609.97;5076321;28;20036;-89
2022/10/10 05:15:51;;;;;;;14.70;2.20;;;;;;;6.60;100.00;100605.88;5071911;28;20072;-89
2022/10/10 05:18:21;;;;;;;17.55;2.15;;;;;;;6.54;100.00;100618.53;5100389;28;20040;-88
2022/10/10 05:20:51;;;;;;;13.18;2.33;;;;;;;6.51;100.00;100621.41;5073263;28;20028;-89
2022/10/10 05:23:21;;;;;;;9.52;1.60;;;;;;;6.51;100.00;100623.19;5081944;28;20081;-88
2022/10/10 05:25:51;;;;;;;13.35;1.50;;;;;;;6.51;100.00;100633.69;5110592;28;20046;-88
2022/10/10 05:28:19;;;;;;;9.57;2.10;;;;;;;6.52;100.00;100640.59;5099950;28;20502;-88
2022/10/10 05:30:47;;;;;;;13.20;2.08;;;;;;;6.53;100.00;100644.91;5087345;28;20518;-88
2022/10/10 05:33:17;;;;;;;16.98;2.15;;;;;;;6.51;100.00;100641.56;5085099;28;20062;-88
2022/10/10 05:35:47;;;;;;;15.57;2.10;;;;;;;6.48;100.00;100647.88;5072059;28;20476;-88
2022/10/10 05:38:17;;;;;;;10.90;1.50;;;;;;;6.41;100.00;100646.63;5075045;28;20038;-88
2022/10/10 05:40:46;;;;;;;24.38;2.22;;;;;;;6.38;100.00;100663.47;5093054;28;20076;-89
2022/10/10 05:43:14;;;;;;;12.00;1.73;;;;;;;6.33;100.00;100676.94;5110278;28;20065;-87
2022/10/10 05:45:42;;;;;;;18.35;2.80;;;;;;;6.32;100.00;100683.09;5085974;28;20036;-88
2022/10/10 05:48:09;;;;;;;12.23;1.90;;;;;;;6.27;100.00;100687.88;5087097;28;20036;-88
2022/10/10 05:50:44;;;;;;;13.90;1.73;;;;;;;6.23;100.00;100689.03;5062053;28;20023;-88
2022/10/10 05:53:12;;;;;;;13.88;2.10;;;;;;;6.23;100.00;100696.91;5092550;28;20495;-87
2022/10/10 05:55:43;;;;;;;20.23;1.98;;;;;;;6.27;100.00;100701.00;5083101;28;20032;-87
2022/10/10 05:58:14;;;;;;;13.50;1.33;;;;;;;6.27;100.00;100697.53;5080185;28;20085;-88
2022/10/10 06:00:46;;;;;;;15.18;1.70;;;;;;;6.28;100.00;100707.06;5079036;28;20063;-88
2022/10/10 06:03:16;;;;;;;19.27;2.58;;;;;;;6.22;100.00;100707.50;5076307;28;20067;-88
2022/10/10 06:05:50;;;;;;;16.23;2.58;;;;;;;6.13;100.00;100716.88;5097031;28;20501;-88
2022/10/10 06:08:19;;;;;;;10.57;1.65;;;;;;;6.05;100.00;100720.06;5082850;28;20353;-87
2022/10/10 06:10:47;;;;;;;13.60;1.40;;;;;;;6.02;100.00;100721.06;5090138;28;20538;-88
2022/10/10 06:13:18;;;;;;;15.05;1.60;;;;;;;5.99;100.00;100729.16;5106336;27;20039;-87
2022/10/10 06:15:51;;;;;;;9.07;1.42;;;;;;;5.94;100.00;100728.66;5075128;28;20493;-88
2022/10/10 06:18:21;;;;;;;11.52;1.83;;;;;;;5.92;100.00;100736.63;5073704;28;20070;-87
2022/10/10 06:20:50;;;;;;;16.05;2.08;;;;;;;5.93;100.00;100729.56;5076521;28;20066;-88
2022/10/10 06:23:18;;;;;;;16.23;1.83;;;;;;;5.88;100.00;100742.16;5093494;28;20036;-87
2022/10/10 06:25:50;;;;;;;13.38;2.35;;;;;;;5.91;100.00;100744.59;5088467;28;20024;-89
2022/10/10 06:28:18;;;;;;;13.15;2.05;;;;;;;5.84;100.00;100747.63;5098673;28;20031;-89
2022/10/10 06:30:49;;;;;;;11.05;1.40;;;;;;;5.88;100.00;100756.13;5082895;28;20115;-89
2022/10/10 06:33:18;;;;;;;14.70;2.53;;;;;;;5.88;100.00;100755.28;5064799;28;20533;-88
2022/10/10 06:35:49;;;;;;;12.00;1.67;;;;;;;5.91;100.00;100774.28;5104166;28;20070;-88
2022/10/10 06:38:17;;;;;;;19.10;1.88;;;;;;;5.94;100.00;100765.38;5090134;28;20426;-88
2022/10/10 06:40:46;;;;;;;22.55;2.30;;;;;;;5.94;100.00;100779.31;5091719;28;20027;-89
2022/10/10 06:43:15;;;;;;;24.33;2.75;;;;;;;5.99;100.00;100780.81;5083105;28;20403;-88
2022/10/10 06:45:45;;;;;;;14.75;1.90;;;;;;;6.01;100.00;100778.91;5097221;28;20039;-87
2022/10/10 06:48:15;;;;;;;9.63;1.63;;;;;;;5.98;100.00;100779.09;5055094;28;20040;-87
2022/10/10 06:50:56;;;;;;;12.70;1.48;;;;;;;5.95;100.00;100790.66;5107284;28;20110;-88
2022/10/10 06:53:27;;;;;;;9.60;1.52;;;;;;;5.95;100.00;100795.91;5126110;28;20036;-88
2022/10/10 06:55:56;;;;;;;10.30;1.73;;;;;;;5.96;100.00;100802.81;5098050;28;20135;-87
2022/10/10 06:58:26;;;;;;;11.90;1.70;;;;;;;5.98;100.00;100810.59;5108497;28;20046;-88
2022/10/10 07:00:59;;;;;;;11.75;1.88;;;;;;;6.03;100.00;100811.13;5091271;28;20027;-88
2022/10/10 07:03:30;;;;;;;11.50;1.45;;;;;;;6.07;100.00;100810.84;5096920;28;20032;-88
2022/10/10 07:06:00;;;;;;;13.77;2.25;;;;;;;6.13;100.00;100819.25;5114838;28;20039;-88
2022/10/10 07:08:30;;;;;;;8.07;1.38;;;;;;;6.16;100.00;100819.03;5105060;28;20042;-88
2022/10/10 07:11:01;;;;;;;12.25;1.52;;;;;;;6.21;100.00;100824.81;5092225;28;20508;-88
2022/10/10 07:13:31;;;;;;;14.40;2.03;;;;;;;6.26;100.00;100833.19;5058429;28;20051;-87
2022/10/10 07:16:01;;;;;;;12.00;1.98;;;;;;;6.33;100.00;100834.47;5100285;28;20048;-87
2022/10/10 07:18:31;;;;;;;9.45;1.70;;;;;;;6.41;100.00;100841.78;5106313;28;20036;-87
2022/10/10 07:21:00;;;;;;;22.27;2.47;;;;;;;6.45;100.00;100843.25;5110781;28;20063;-88
2022/10/10 07:23:32;;;;;;;14.23;2.28;;;;;;;6.51;100.00;100851.66;5060144;28;20460;-88
2022/10/10 07:26:06;;;;;;;18.45;2.97;;;;;;;6.55;100.00;100856.56;5102115;28;20070;-87
2022/10/10 07:28:37;;;;;;;15.13;2.00;;;;;;;6.61;100.00;100860.53;5114014;28;20027;-87
2022/10/10 07:31:09;;;;;;;16.20;2.72;;;;;;;6.67;100.00;100868.00;5082448;28;20031;-88
2022/10/10 07:33:42;;;;;;;14.65;2.88;;;;;;;6.73;100.00;100865.88;5101540;28;20059;-88
2022/10/10 07:36:12;;;;;;;19.25;2.42;;;;;;;6.75;100.00;100878.00;5098852;28;20035;-88
2022/10/10 07:38:41;;;;;;;17.45;2.47;;;;;;;6.80;100.00;100880.28;5094832;28;20032;-90
2022/10/10 07:41:12;;;;;;;19.77;2.35;;;;;;;6.84;100.00;100879.13;5072447;28;20113;-88
2022/10/10 07:43:42;;;;;;;11.75;1.73;;;;;;;6.85;100.00;100880.78;5060557;28;20063;-89
2022/10/10 07:46:18;;;;;;;14.70;2.08;;;;;;;6.88;100.00;100888.44;5064681;28;20035;-87
2022/10/10 07:48:48;;;;;;;16.65;2.05;;;;;;;6.91;100.00;100892.66;5090113;28;20467;-90
2022/10/10 07:51:18;;;;;;;26.50;2.75;;;;;;;6.92;100.00;100896.97;5100887;28;20028;-89
2022/10/10 07:53:48;;;;;;;14.45;1.85;;;;;;;6.98;100.00;100898.28;5096631;28;20122;-91
2022/10/10 07:56:17;;;;;;;13.25;1.95;;;;;;;7.00;100.00;100910.41;5095015;28;20435;-90
2022/10/10 07:58:46;;;;;;;17.77;3.13;;;;;;;7.03;100.00;100917.22;5079665;28;20036;-88
2022/10/10 08:01:14;;;;;;;12.85;2.60;;;;;;;7.02;100.00;100913.78;5088522;28;20422;-90
2022/10/10 08:03:43;;;;;;;16.73;2.33;;;;;;;7.07;100.00;100922.13;5093541;28;20476;-89
2022/10/10 08:06:13;;;;;;;23.25;2.33;;;;;;;7.11;100.00;100924.56;5097010;28;20050;-89
2022/10/10 08:08:43;;;;;;;22.30;2.40;;;;;;;7.14;100.00;100929.59;5093955;28;20024;-88
2022/10/10 08:11:11;;;;;;;14.70;2.50;;;;;;;7.18;100.00;100928.44;5094852;28;20479;-89
2022/10/10 08:13:41;;;;;;;19.98;2.35;;;;;;;7.23;100.00;100930.75;5079999;28;20484;-88
2022/10/10 08:16:09;;;;;;;16.58;1.67;;;;;;;7.27;100.00;100930.41;5070785;28;20056;-88
2022/10/10 08:18:37;;;;;;;17.30;2.40;;;;;;;7.34;100.00;100935.22;5034529;28;20036;-92
2022/10/10 08:21:10;;;;;;;15.60;2.83;;;;;;;7.41;100.00;100947.81;5040005;28;20067;-89
2022/10/10 08:23:40;;;;;;;18.80;2.75;;;;;;;7.47;100.00;100946.50;5057494;28;20093;-89
2022/10/10 08:26:12;;;;;;;17.60;2.30;;;;;;;7.56;100.00;100945.03;5033531;28;20036;-89
2022/10/10 08:28:44;;;;;;;16.20;2.60;;;;;;;7.64;100.00;100952.34;5032784;28;20048;-91
2022/10/10 08:31:17;;;;;;;19.25;3.50;;;;;;;7.70;100.00;100957.16;5049098;28;20032;-91
2022/10/10 08:33:47;;;;;;;17.20;2.22;;;;;;;7.78;100.00;100961.84;5041374;28;20028;-88
2022/10/10 08:36:20;;;;;;;22.58;2.67;;;;;;;7.85;100.00;100965.69;5081959;28;20047;-90
2022/10/10 08:38:51;;;;;;;18.77;3.45;;;;;;;7.92;100.00;100969.56;5053959;28;20050;-89
2022/10/10 08:41:19;;;;;;;20.58;2.55;;;;;;;7.99;100.00;100974.38;5053133;28;20036;-89
2022/10/10 08:43:51;;;;;;;15.00;2.60;;;;;;;8.06;100.00;100979.06;5049853;28;20481;-91
2022/10/10 08:46:35;;;;;;;16.90;2.30;;;;;;;8.14;100.00;100982.91;5055249;28;20032;-91
2022/10/10 08:49:18;;;;;;;20.67;3.17;;;;;;;8.20;100.00;101000.91;5068531;28;20039;-90
2022/10/10 08:51:53;;;;;;;16.38;2.58;;;;;;;8.25;100.00;100993.47;5058532;28;20396;-90
2022/10/10 08:54:25;;;;;;;19.38;2.88;;;;;;;8.31;100.00;100995.66;5051505;28;20044;-89
2022/10/10 08:56:59;;;;;;;21.05;3.03;;;;;;;8.39;100.00;101002.16;5066249;28;20035;-88
2022/10/10 08:59:36;;;;;;;15.57;3.27;;;;;;;8.45;100.00;100996.41;5029403;28;20044;-89
2022/10/10 09:02:27;;;;;;;22.75;4.70;;;;;;;8.53;100.00;101006.38;5058859;28;20066;-90
2022/10/10 09:04:57;;;;;;;21.80;3.08;;;;;;;8.59;100.00;101011.19;5074807;28;20036;-90
2022/10/10 09:07:49;;;;;;;17.10;2.97;;;;;;;8.64;100.00;101014.34;5092104;28;20068;-90
2022/10/10 09:10:29;;;;;;;17.13;2.80;;;;;;;8.72;100.00;101012.88;5040073;28;20047;-90
2022/10/10 09:13:02;;;;;;;18.95;2.40;;;;;;;8.81;100.00;101015.66;5040161;28;20036;-90
2022/10/10 09:16:01;;;;;;;20.52;2.50;;;;;;;8.90;100.00;101031.72;5071827;28;20047;-87
2022/10/10 09:18:59;;;;;;;14.60;1.98;;;;;;;8.96;100.00;101033.88;5075526;28;20039;-89
2022/10/10 09:21:35;;;;;;;;;;;;;;;8.97;100.00;101045.25;5093548;28;20024;-89
2022/10/10 09:24:08;;;;;;;;;;;;;;;9.03;100.00;101048.25;5105826;28;20054;-88
2022/10/10 09:26:43;;;;;;;19.42;2.75;;;;;;;9.18;100.00;101040.13;5100759;28;20438;-89
2022/10/10 09:29:22;;;;;;;17.20;2.60;;;;;;;9.25;100.00;101051.84;5096852;28;20119;-88
2022/10/10 09:31:57;;;;;;;21.58;3.45;;;;;;;9.36;100.00;101047.56;5092091;28;20036;-89
2022/10/10 09:34:51;;;;;;;25.75;3.67;;;;;;;9.47;100.00;101057.25;5094486;28;20035;-89
2022/10/10 09:37:28;;;;;;;21.45;2.78;;;;;;;9.55;100.00;101057.47;5091035;28;20051;-87
2022/10/10 09:39:59;;;;;;;;;;;;;;;9.54;100.00;101055.78;5097588;28;20031;-89
2022/10/10 09:42:35;;;;;;;19.63;3.42;;;;;;;9.72;100.00;101071.13;5111817;28;20018;-89
2022/10/10 09:45:12;;;;;;;22.65;3.40;;;;;;;9.80;100.00;101077.47;5093949;28;20062;-88
2022/10/10 09:47:41;;;;;;;22.85;3.00;;;;;;;9.88;100.00;101074.22;5109876;28;20472;-90
2022/10/10 09:50:15;;;;;;;21.13;3.20;;;;;;;9.97;100.00;101079.72;5097561;28;20031;-88
2022/10/10 09:52:46;;;;;;;20.92;2.78;;;;;;;10.02;100.00;101083.66;5117122;27;20028;-89
2022/10/10 09:55:32;;;;;;;20.00;3.45;;;;;;;10.08;100.00;101077.00;5062376;28;20032;-90
2022/10/10 09:58:22;;;;;;;22.27;2.88;;;;;;;10.13;100.00;101087.22;5121314;27;20090;-88
2022/10/10 10:00:52;;;;;;;16.30;2.50;;;;;;;10.18;100.00;101087.69;5082563;28;20028;-86
2022/10/10 10:03:21;;;;;;;20.02;3.17;;;;;;;10.25;100.00;101095.94;5090842;28;20082;-87
2022/10/10 10:06:02;;;;;;;23.48;3.65;;;;;;;10.26;100.00;101109.03;5091633;28;20043;-86
2022/10/10 10:08:35;;;;;;;23.55;3.80;;;;;;;10.32;100.00;101105.03;5080569;28;20127;-87
2022/10/10 10:11:05;;;;;;;19.65;3.60;;;;;;;10.44;100.00;101111.13;5107014;28;20024;-88
2022/10/10 10:13:36;;;;;;;21.55;3.22;;;;;;;10.54;100.00;101111.25;5088028;28;20043;-87
2022/10/10 10:16:11;;;;;;;20.95;3.17;;;;;;;10.60;99.45;101107.22;5109704;28;20105;-88
2022/10/10 10:18:44;;;;;;;23.95;4.20;;;;;;;10.64;97.93;101112.13;5107625;28;20032;-88
2022/10/10 10:21:15;;;;;;;20.38;4.10;;;;;;;10.70;97.72;101108.16;5077740;28;20111;-87
2022/10/10 10:24:02;;;;;;;28.02;3.80;;;;;;;10.83;97.78;101101.84;5090844;28;20040;-88
2022/10/10 10:26:42;;;;;;;;;;;;;;;10.73;90.42;101099.13;5098765;28;20070;-87
2022/10/10 10:29:24;;;;;;;14.88;2.22;;;;;;;10.81;90.83;101106.41;5093324;28;20276;-86
2022/10/10 10:32:04;;;;;;;13.05;2.58;;;;;;;10.83;91.16;101113.22;5066475;28;20024;-87
2022/10/10 10:34:43;;;;;;;23.98;3.95;;;;;;;10.89;91.19;101112.72;5123519;28;20031;-87
2022/10/10 10:37:31;;;;;;;22.83;3.92;;;;;;;10.98;91.91;101124.34;5077037;28;20028;-87
2022/10/10 10:40:12;;;;;;;16.10;3.35;;;;;;;11.08;90.87;101126.19;5107958;28;20036;-87
2022/10/10 10:43:07;;;;;;;25.25;3.92;;;;;;;11.09;87.15;101130.50;5086653;28;20024;-87
2022/10/10 10:45:43;;;;;;;18.77;3.50;;;;;;;11.15;88.60;101130.81;5089233;28;20495;-87
2022/10/10 10:48:42;;;;;;;16.30;2.67;;;;;;;11.26;88.57;101142.31;5121093;28;20028;-88
2022/10/10 10:51:29;;;;;;;25.30;3.45;;;;;;;11.33;86.49;101137.31;5059846;28;20135;-87
2022/10/10 10:54:16;;;;;;;23.42;3.92;;;;;;;11.34;85.89;101131.06;5087497;28;20032;-87
2022/10/10 10:57:01;;;;;;;22.77;4.05;;;;;;;11.46;84.64;101135.28;5089689;28;20036;-85
2022/10/10 10:59:48;;;;;;;17.15;3.22;;;;;;;11.44;80.05;101139.03;5103896;28;20118;-86
2022/10/10 11:02:28;;;;;;;14.95;2.70;;;;;;;11.48;80.34;101143.91;5074464;28;20031;-86
2022/10/10 11:05:19;;;;;;;16.67;2.88;;;;;;;11.52;79.87;101155.94;5086494;28;20060;-88
2022/10/10 11:08:12;;;;;;;21.02;3.05;;;;;;;11.58;79.28;101162.50;5097942;28;20028;-87
2022/10/10 11:10:55;;;;;;;16.83;2.75;;;;;;;11.61;76.98;101162.22;5078629;28;20117;-86
2022/10/10 11:13:40;;;;;;;24.35;4.07;;;;;;;11.63;77.73;101165.59;5049399;28;20138;-87
2022/10/10 11:16:09;;;;;;;17.48;3.28;;;;;;;11.71;77.70;101166.72;5065788;28;20561;-87
2022/10/10 11:18:50;;;;;;;15.65;3.25;;;;;;;11.76;75.73;101167.16;5048287;28;20027;-88
2022/10/10 11:21:26;;;;;;;20.85;3.50;;;;;;;11.80;74.81;101179.19;5064612;28;20082;-87
2022/10/10 11:24:05;;;;;;;20.35;3.58;;;;;;;11.86;74.31;101183.94;5090604;28;20039;-86
2022/10/10 11:26:44;;;;;;;26.80;3.47;;;;;;;11.98;75.71;101192.63;5104956;28;20320;-89
2022/10/10 11:29:18;;;;;;;23.25;3.83;;;;;;;12.03;75.30;101187.75;5076899;28;20044;-87
2022/10/10 11:32:24;;;;;;;15.18;3.40;;;;;;;12.15;75.72;101182.38;5110346;28;20113;-87
2022/10/10 11:35:14;;;;;;;19.75;3.97;;;;;;;12.18;72.50;101194.50;5041901;28;20109;-87
2022/10/10 11:37:53;;;;;;;21.75;3.20;;;;;;;12.25;75.11;101201.78;5056656;28;20063;-89
2022/10/10 11:40:49;;;;;;;19.92;3.45;;;;;;;12.26;71.73;101207.91;5093458;28;20040;-88
2022/10/10 11:43:30;;;;;;;16.83;3.30;;;;;;;12.25;71.19;101215.03;5087482;28;20523;-87
2022/10/10 11:46:07;;;;;;;21.83;3.75;;;;;;;12.29;74.05;101207.66;5095781;28;20495;-88
2022/10/10 11:48:46;;;;;;;20.25;3.10;;;;;;;12.40;73.49;101201.38;5092183;28;20130;-88
2022/10/10 11:51:48;;;;;;;21.98;4.65;;;;;;;12.42;72.30;101196.78;5096468;28;20040;-88